Time;durP1;ratioP1;P1;durP2;ratioP2;P2;SDS_P1;SDS_P2;PMS_P1;PMS_P2;Temp;Humidity;BMP_temperature;BMP_pressure;BME280_temperature;BME280_humidity;BME280_pressure;Samples;Min_cycle;Max_cycle;Signal;HPM_P1;HPM_P2
2022/03/19 00:00:02;;;;;;;5.97;5.39;;;;;;;-3.68;52.38;103470.41;467392;113;922583;-69
2022/03/19 00:01:06;;;;;;;6.54;5.26;;;;;;;-3.70;52.33;103469.61;463885;113;922527;-71
2022/03/19 00:02:11;;;;;;;6.13;5.15;;;;;;;-3.70;52.40;103471.41;463611;112;931117;-68
2022/03/19 00:03:15;;;;;;;7.03;5.54;;;;;;;-3.71;52.39;103465.20;458193;113;930608;-68
2022/03/19 00:04:18;;;;;;;6.41;5.41;;;;;;;-3.71;52.47;103464.32;453509;116;922552;-69
2022/03/19 00:05:21;;;;;;;7.58;5.60;;;;;;;-3.71;52.46;103464.32;453579;116;923014;-70
2022/03/19 00:06:25;;;;;;;5.77;5.08;;;;;;;-3.72;52.43;103466.11;454630;116;930609;-69
2022/03/19 00:07:29;;;;;;;5.38;4.86;;;;;;;-3.73;52.48;103467.03;451939;116;930836;-68
2022/03/19 00:08:32;;;;;;;6.04;4.86;;;;;;;-3.73;52.58;103468.82;453069;116;930986;-67
2022/03/19 00:09:36;;;;;;;5.97;5.38;;;;;;;-3.73;52.54;103466.16;454793;116;922611;-69
2022/03/19 00:10:39;;;;;;;6.01;5.30;;;;;;;-3.74;52.56;103462.62;453117;116;922818;-69
2022/03/19 00:11:43;;;;;;;6.09;5.43;;;;;;;-3.75;52.60;103455.57;455235;116;925515;-69
2022/03/19 00:12:47;;;;;;;6.57;5.95;;;;;;;-3.74;52.56;103453.74;452258;116;927385;-69
2022/03/19 00:13:50;;;;;;;5.96;5.44;;;;;;;-3.74;52.51;103461.74;454692;116;930561;-69
2022/03/19 00:14:54;;;;;;;8.41;5.88;;;;;;;-3.74;52.50;103469.73;454869;116;922916;-69
2022/03/19 00:15:57;;;;;;;7.39;5.12;;;;;;;-3.75;52.50;103463.56;453529;116;922610;-68
2022/03/19 00:17:00;;;;;;;7.55;6.33;;;;;;;-3.74;52.51;103459.08;453404;116;923560;-68
2022/03/19 00:18:04;;;;;;;5.64;5.12;;;;;;;-3.76;52.42;103458.28;454122;116;922832;-69
2022/03/19 00:19:08;;;;;;;6.54;5.95;;;;;;;-3.78;52.36;103460.98;455522;116;922996;-68
2022/03/19 00:20:12;;;;;;;6.22;5.58;;;;;;;-3.82;52.37;103457.56;452517;116;922588;-68
2022/03/19 00:21:16;;;;;;;6.38;5.54;;;;;;;-3.84;52.37;103463.86;451605;116;922879;-68
2022/03/19 00:22:19;;;;;;;6.46;5.59;;;;;;;-3.86;52.43;103460.39;452674;116;930515;-69
2022/03/19 00:23:23;;;;;;;7.33;6.26;;;;;;;-3.87;52.44;103462.19;453404;116;930627;-69
2022/03/19 00:24:26;;;;;;;8.02;5.78;;;;;;;-3.86;52.43;103458.57;454798;116;922651;-70
2022/03/19 00:25:29;;;;;;;7.42;6.19;;;;;;;-3.87;52.46;103459.52;453126;116;922664;-68
2022/03/19 00:26:33;;;;;;;6.99;6.32;;;;;;;-3.87;52.56;103451.52;453286;116;923025;-71
2022/03/19 00:27:37;;;;;;;7.56;5.80;;;;;;;-3.85;52.59;103451.45;454132;116;922626;-69
2022/03/19 00:28:41;;;;;;;7.37;5.83;;;;;;;-3.84;52.64;103463.86;451808;116;922543;-68
2022/03/19 00:29:44;;;;;;;7.31;5.61;;;;;;;-3.84;52.64;103451.41;451049;116;922864;-68
2022/03/19 00:30:48;;;;;;;6.79;5.69;;;;;;;-3.83;52.57;103454.94;447145;118;922486;-68
2022/03/19 00:31:52;;;;;;;6.42;5.44;;;;;;;-3.83;52.61;103455.81;439481;120;922660;-69
2022/03/19 00:32:56;;;;;;;6.89;5.78;;;;;;;-3.84;52.53;103454.07;443631;119;922540;-69
2022/03/19 00:34:00;;;;;;;8.23;5.85;;;;;;;-3.84;52.60;103454.07;439433;119;930516;-67
2022/03/19 00:35:04;;;;;;;8.82;6.39;;;;;;;-3.84;52.60;103447.86;438673;119;930497;-70
2022/03/19 00:36:08;;;;;;;9.87;6.17;;;;;;;-3.83;52.58;103452.28;444151;119;930543;-69
2022/03/19 00:37:11;;;;;;;8.26;5.91;;;;;;;-3.85;52.58;103443.45;444502;119;923069;-68
2022/03/19 00:38:15;;;;;;;7.89;6.18;;;;;;;-3.84;52.58;103446.07;444512;119;922922;-69
2022/03/19 00:39:18;;;;;;;7.11;6.37;;;;;;;-3.85;52.58;103446.99;439982;119;930443;-68
2022/03/19 00:40:24;;;;;;;7.89;6.06;;;;;;;-3.84;52.61;103443.41;437034;119;930516;-69
2022/03/19 00:41:27;;;;;;;7.19;6.37;;;;;;;-3.84;52.62;103443.41;442385;119;922634;-68
2022/03/19 00:42:31;;;;;;;6.96;5.93;;;;;;;-3.84;52.46;103440.74;444451;119;930481;-68
2022/03/19 00:43:36;;;;;;;7.12;5.86;;;;;;;-3.84;52.46;103440.74;444482;117;930557;-68
2022/03/19 00:44:40;;;;;;;6.53;5.53;;;;;;;-3.84;52.64;103439.87;441835;119;922687;-68
2022/03/19 00:45:43;;;;;;;6.78;5.38;;;;;;;-3.85;52.58;103441.66;437876;116;922545;-70
2022/03/19 00:46:48;;;;;;;6.40;5.64;;;;;;;-3.85;52.59;103440.78;436877;119;930797;-70
2022/03/19 00:47:52;;;;;;;6.84;5.42;;;;;;;-3.86;52.53;103444.40;438162;119;930552;-68
2022/03/19 00:48:56;;;;;;;7.02;6.33;;;;;;;-3.87;52.52;103438.20;444558;119;922515;-67
2022/03/19 00:49:59;;;;;;;9.10;5.89;;;;;;;-3.87;52.58;103448.86;444453;119;930938;-69
2022/03/19 00:51:03;;;;;;;6.89;5.54;;;;;;;-3.87;52.62;103442.66;444455;119;930526;-68
2022/03/19 00:52:06;;;;;;;9.21;5.60;;;;;;;-3.87;52.61;103443.53;444481;119;922712;-68
2022/03/19 00:53:10;;;;;;;6.63;5.69;;;;;;;-3.87;52.60;103443.53;444344;119;922610;-69
2022/03/19 00:54:15;;;;;;;6.39;5.76;;;;;;;-3.87;52.60;103443.53;444537;119;922978;-69
2022/03/19 00:55:18;;;;;;;5.83;5.20;;;;;;;-3.88;52.65;103439.11;444393;119;922709;-70
2022/03/19 00:56:22;;;;;;;6.10;5.54;;;;;;;-3.88;52.58;103441.78;444472;119;922852;-68
2022/03/19 00:57:25;;;;;;;5.92;5.28;;;;;;;-3.90;52.54;103443.61;444446;119;930610;-68
2022/03/19 00:58:29;;;;;;;6.64;5.21;;;;;;;-3.89;52.62;103444.48;442123;119;922961;-66
2022/03/19 00:59:32;;;;;;;6.41;5.62;;;;;;;-3.91;52.52;103439.20;439516;119;922572;-68
2022/03/19 01:00:36;;;;;;;6.39;5.44;;;;;;;-3.91;52.49;103433.87;441603;119;930617;-68
2022/03/19 01:01:39;;;;;;;7.08;5.36;;;;;;;-3.92;52.45;103440.15;441857;119;930580;-68
2022/03/19 01:02:44;;;;;;;5.83;5.22;;;;;;;-3.94;52.45;103427.78;444123;119;930661;-67
2022/03/19 01:03:48;;;;;;;6.02;5.05;;;;;;;-3.96;52.47;103434.95;449991;116;930558;-68
2022/03/19 01:04:51;;;;;;;6.34;5.74;;;;;;;-3.99;52.56;103440.39;450974;116;922707;-70
2022/03/19 01:05:55;;;;;;;6.76;5.29;;;;;;;-4.00;52.54;103436.86;442123;118;922808;-65
2022/03/19 01:06:58;;;;;;;6.85;5.31;;;;;;;-4.01;52.69;103437.77;443477;117;922700;-68
2022/03/19 01:08:02;;;;;;;6.75;5.87;;;;;;;-4.01;52.67;103437.77;445161;118;922743;-68
2022/03/19 01:09:05;;;;;;;5.50;4.96;;;;;;;-4.00;52.66;103435.98;441846;118;922508;-68
2022/03/19 01:10:12;;;;;;;6.56;5.44;;;;;;;-4.02;52.64;103438.69;441894;118;928939;-68
2022/03/19 01:11:15;;;;;;;6.77;5.43;;;;;;;-4.03;52.62;103439.64;441786;118;922590;-66
2022/03/19 01:12:19;;;;;;;7.31;5.39;;;;;;;-4.04;52.66;103434.34;445625;118;922602;-70
2022/03/19 01:13:22;;;;;;;5.60;4.91;;;;;;;-4.04;52.67;103434.34;449442;118;922491;-70
2022/03/19 01:14:26;;;;;;;6.57;5.61;;;;;;;-4.04;52.67;103432.56;449399;118;930613;-66
2022/03/19 01:15:29;;;;;;;7.49;5.83;;;;;;;-4.05;52.75;103429.94;441733;120;922707;-65
2022/03/19 01:16:33;;;;;;;6.86;5.92;;;;;;;-4.06;52.72;103431.73;441741;118;922974;-65
2022/03/19 01:17:37;;;;;;;6.61;5.97;;;;;;;-4.06;52.71;103428.19;434507;120;930524;-68
2022/03/19 01:18:40;;;;;;;6.29;5.26;;;;;;;-4.06;52.75;103438.84;447748;118;930795;-67
2022/03/19 01:19:53;;;;;;;6.11;5.51;;;;;;;-4.08;52.75;103441.55;441313;118;922581;-69
2022/03/19 01:20:57;;;;;;;5.94;5.33;;;;;;;-4.08;52.76;103441.55;446274;118;923054;-68
2022/03/19 01:22:00;;;;;;;6.58;5.89;;;;;;;-4.08;52.77;103433.56;447973;118;922777;-68
2022/03/19 01:23:04;;;;;;;6.68;5.79;;;;;;;-4.08;52.78;103435.38;448096;118;930594;-68
2022/03/19 01:24:07;;;;;;;6.66;5.74;;;;;;;-4.09;52.80;103430.97;448189;118;923024;-69
2022/03/19 01:25:12;;;;;;;6.25;5.09;;;;;;;-4.09;52.78;103434.51;448154;118;922960;-67
2022/03/19 01:26:18;;;;;;;8.09;6.11;;;;;;;-4.10;52.74;103432.76;444399;118;922718;-68
2022/03/19 01:27:22;;;;;;;7.32;6.55;;;;;;;-4.11;52.72;103439.00;441843;118;923260;-67
2022/03/19 01:28:25;;;;;;;7.17;5.58;;;;;;;-4.11;52.77;103443.45;448177;118;922618;-69
2022/03/19 01:29:29;;;;;;;9.48;6.38;;;;;;;-4.12;52.79;103439.05;447921;118;930688;-67
2022/03/19 01:30:32;;;;;;;7.39;6.44;;;;;;;-4.13;52.89;103440.84;440726;118;922495;-68
2022/03/19 01:31:36;;;;;;;6.31;5.66;;;;;;;-4.13;52.80;103439.96;448024;118;922968;-67
2022/03/19 01:32:40;;;;;;;6.59;5.66;;;;;;;-4.14;52.79;103447.11;448161;118;922570;-68
2022/03/19 01:33:44;;;;;;;7.17;6.45;;;;;;;-4.15;52.85;103444.49;441379;116;922598;-68
2022/03/19 01:34:47;;;;;;;7.14;6.39;;;;;;;-4.17;52.90;103444.53;440735;118;922704;-68
2022/03/19 01:35:51;;;;;;;8.14;6.53;;;;;;;-4.16;52.97;103450.73;434869;120;922579;-68
2022/03/19 01:36:54;;;;;;;10.38;5.97;;;;;;;-4.17;52.86;103446.32;434528;120;930529;-66
2022/03/19 01:37:58;;;;;;;7.75;6.36;;;;;;;-4.18;52.91;103444.57;436093;120;922716;-68
2022/03/19 01:39:01;;;;;;;7.09;5.99;;;;;;;-4.17;52.86;103448.98;441490;120;922706;-70
2022/03/19 01:40:07;;;;;;;6.95;6.25;;;;;;;-4.19;52.90;103441.06;441853;118;923650;-69
2022/03/19 01:41:10;;;;;;;6.63;5.87;;;;;;;-4.19;52.91;103445.52;446094;116;930675;-69
2022/03/19 01:42:23;;;;;;;9.59;6.50;;;;;;;-4.20;52.97;103444.65;449017;116;923051;-68
2022/03/19 01:43:26;;;;;;;6.68;5.88;;;;;;;-4.19;52.96;103450.84;442482;118;923382;-69
2022/03/19 01:44:29;;;;;;;6.94;6.24;;;;;;;-4.21;52.90;103443.77;447893;117;922602;-67
2022/03/19 01:45:33;;;;;;;6.73;5.99;;;;;;;-4.22;52.94;103442.02;445119;118;922652;-67
2022/03/19 01:46:58;;;;;;;7.71;6.18;;;;;;;-4.22;52.91;103441.15;447538;118;923283;-70
2022/03/19 01:48:02;;;;;;;7.89;6.28;;;;;;;-4.22;52.92;103446.48;448164;118;922575;-68
2022/03/19 01:49:05;;;;;;;7.69;6.77;;;;;;;-4.24;52.92;103449.18;444427;117;922938;-67
2022/03/19 01:50:10;;;;;;;7.46;6.02;;;;;;;-4.26;52.91;103439.52;445796;116;922760;-68
2022/03/19 01:51:14;;;;;;;8.39;7.56;;;;;;;-4.27;53.03;103443.97;441839;118;928937;-66
2022/03/19 01:52:18;;;;;;;10.97;7.94;;;;;;;-4.28;53.02;103447.55;444646;118;922519;-68
2022/03/19 01:53:21;;;;;;;15.10;8.64;;;;;;;-4.29;53.04;103443.13;449416;117;923448;-67
2022/03/19 01:54:30;;;;;;;10.08;8.39;;;;;;;-4.29;53.08;103448.46;443716;118;922757;-65
2022/03/19 01:55:33;;;;;;;9.54;6.95;;;;;;;-4.31;53.03;103447.66;445312;118;922596;-67
2022/03/19 01:56:38;;;;;;;8.17;7.37;;;;;;;-4.31;53.03;103447.66;441914;118;922553;-71
2022/03/19 01:57:45;;;;;;;8.73;7.84;;;;;;;-4.32;53.06;103447.70;441577;118;930544;-68
2022/03/19 01:58:49;;;;;;;9.37;7.73;;;;;;;-4.33;53.07;103443.28;436388;120;922746;-68
2022/03/19 01:59:53;;;;;;;9.66;8.14;;;;;;;-4.34;53.13;103445.08;441155;118;922989;-68
2022/03/19 02:00:57;;;;;;;8.23;7.29;;;;;;;-4.34;53.20;103449.53;441655;118;930579;-70
2022/03/19 02:02:06;;;;;;;8.87;7.82;;;;;;;-4.34;53.31;103452.19;441853;118;922549;-67
2022/03/19 02:03:10;;;;;;;11.14;8.82;;;;;;;-4.34;53.22;103452.19;448786;118;923018;-69
2022/03/19 02:04:14;;;;;;;8.88;8.01;;;;;;;-4.35;53.22;103450.44;443945;118;922662;-69
2022/03/19 02:05:19;;;;;;;8.26;7.23;;;;;;;-4.36;53.26;103449.60;447465;117;922535;-68
2022/03/19 02:06:26;;;;;;;7.98;7.18;;;;;;;-4.35;53.28;103450.44;451244;117;930698;-68
2022/03/19 02:07:30;;;;;;;9.15;8.09;;;;;;;-4.35;53.33;103450.44;448710;117;922796;-69
2022/03/19 02:08:34;;;;;;;8.37;7.52;;;;;;;-4.36;53.36;103448.73;452390;117;922597;-68
2022/03/19 02:09:38;;;;;;;10.12;7.66;;;;;;;-4.37;53.38;103445.19;445101;117;922545;-65
2022/03/19 02:10:42;;;;;;;8.80;7.95;;;;;;;-4.35;53.47;103455.77;445032;117;922571;-68
2022/03/19 02:11:46;;;;;;;9.08;8.06;;;;;;;-4.36;53.40;103449.60;438285;119;930637;-68
2022/03/19 02:12:50;;;;;;;8.93;8.08;;;;;;;-4.36;53.38;103451.39;449416;115;923166;-68
2022/03/19 02:13:54;;;;;;;9.21;7.62;;;;;;;-4.36;53.40;103456.72;453854;114;930528;-66
2022/03/19 02:14:57;;;;;;;8.96;7.32;;;;;;;-4.39;53.49;103449.68;453878;114;922602;-69
2022/03/19 02:16:00;;;;;;;10.03;7.72;;;;;;;-4.39;53.52;103448.80;454424;114;923190;-67
2022/03/19 02:17:05;;;;;;;9.43;8.21;;;;;;;-4.39;53.45;103452.34;454371;114;930468;-67
2022/03/19 02:18:09;;;;;;;8.16;7.39;;;;;;;-4.41;53.42;103448.84;459108;114;922642;-68
2022/03/19 02:19:12;;;;;;;8.46;7.54;;;;;;;-4.42;53.40;103446.26;461771;114;922620;-67
2022/03/19 02:20:18;;;;;;;9.55;7.82;;;;;;;-4.44;53.35;103446.30;461573;114;930556;-68
2022/03/19 02:21:21;;;;;;;11.28;8.00;;;;;;;-4.44;53.35;103445.42;461914;114;922554;-67
2022/03/19 02:22:26;;;;;;;8.77;7.90;;;;;;;-4.46;53.42;103447.25;462031;114;922963;-68
2022/03/19 02:26:14;;;;;;;9.40;8.06;;;;;;;-4.54;53.32;103447.51;459514;114;922458;-67
2022/03/19 02:27:17;;;;;;;9.33;8.36;;;;;;;-4.58;53.35;103443.20;461892;114;922631;-67
2022/03/19 02:28:21;;;;;;;10.34;8.56;;;;;;;-4.65;53.53;103446.97;461842;114;930479;-68
2022/03/19 02:29:24;;;;;;;10.38;9.36;;;;;;;-4.65;53.53;103446.97;461866;114;930595;-68
2022/03/19 02:30:27;;;;;;;12.11;9.34;;;;;;;-4.67;53.47;103454.99;461352;114;922530;-69
2022/03/19 02:31:31;;;;;;;10.80;9.39;;;;;;;-4.68;53.47;103453.24;461511;114;930211;-68
2022/03/19 02:32:34;;;;;;;13.68;9.74;;;;;;;-4.68;53.46;103460.35;461941;114;922617;-67
2022/03/19 02:33:38;;;;;;;11.42;9.88;;;;;;;-4.69;53.58;103456.84;455885;113;922854;-67
2022/03/19 02:34:42;;;;;;;12.41;11.11;;;;;;;-4.69;53.59;103455.97;454450;114;922630;-68
2022/03/19 02:35:47;;;;;;;16.53;14.43;;;;;;;-4.70;53.49;103452.44;454024;114;922665;-68
2022/03/19 02:36:51;;;;;;;22.56;16.62;;;;;;;-4.71;53.51;103456.02;456448;114;922507;-68
2022/03/19 02:37:56;;;;;;;19.24;16.76;;;;;;;-4.72;53.49;103448.94;453630;114;923078;-69
2022/03/19 02:38:59;;;;;;;21.45;16.89;;;;;;;-4.74;53.46;103450.77;454426;114;922617;-68
2022/03/19 02:40:03;;;;;;;21.77;17.68;;;;;;;-4.77;53.42;103458.86;461736;114;924876;-67
2022/03/19 02:41:07;;;;;;;24.51;18.36;;;;;;;-4.77;53.55;103457.98;461797;114;930718;-68
2022/03/19 02:42:10;;;;;;;24.18;18.13;;;;;;;-4.77;53.54;103463.30;461894;114;922927;-68
2022/03/19 02:43:14;;;;;;;22.05;17.55;;;;;;;-4.79;53.57;103460.67;459597;114;930880;-67
2022/03/19 02:44:19;;;;;;;22.66;16.66;;;;;;;-4.79;53.58;103465.12;453890;114;930619;-67
2022/03/19 02:45:23;;;;;;;19.83;15.99;;;;;;;-4.80;53.59;103472.27;456358;113;922464;-67
2022/03/19 02:46:41;;;;;;;18.51;14.28;;;;;;;-4.81;53.52;103462.53;461806;114;923178;-66
2022/03/19 02:47:58;;;;;;;20.03;13.64;;;;;;;-4.82;53.54;103463.45;461482;114;930793;-67
2022/03/19 02:49:02;;;;;;;11.27;10.06;;;;;;;-4.83;53.71;103459.03;454127;114;922632;-68
2022/03/19 02:50:06;;;;;;;13.09;11.75;;;;;;;-4.83;53.74;103458.16;457494;114;922804;-68
2022/03/19 02:51:09;;;;;;;11.72;10.34;;;;;;;-4.84;53.77;103462.61;461406;114;930376;-70
2022/03/19 02:52:13;;;;;;;11.77;10.53;;;;;;;-4.83;53.84;103461.70;461876;114;922511;-67
2022/03/19 02:53:16;;;;;;;12.57;10.32;;;;;;;-4.83;53.85;103459.03;459269;114;922666;-69
2022/03/19 02:54:22;;;;;;;11.61;10.47;;;;;;;-4.83;53.78;103464.36;456248;114;922805;-68
2022/03/19 02:55:27;;;;;;;12.06;10.09;;;;;;;-4.83;53.77;103461.70;455776;114;922562;-67
2022/03/19 02:56:33;;;;;;;10.30;9.28;;;;;;;-4.83;53.78;103458.16;461619;114;922705;-68
2022/03/19 02:57:36;;;;;;;11.35;9.26;;;;;;;-4.84;53.79;103470.59;461762;114;923112;-68
2022/03/19 02:58:39;;;;;;;12.47;8.88;;;;;;;-4.85;53.80;103460.86;461916;114;923237;-68
2022/03/19 02:59:43;;;;;;;10.64;9.53;;;;;;;-4.85;53.79;103460.86;461365;114;930463;-67
2022/03/19 03:00:46;;;;;;;12.01;8.18;;;;;;;-4.86;53.81;103459.14;461902;114;922540;-67
2022/03/19 03:01:52;;;;;;;9.96;8.08;;;;;;;-4.86;53.84;103464.46;457738;114;922660;-68
2022/03/19 03:02:56;;;;;;;9.31;8.25;;;;;;;-4.86;53.82;103458.27;454307;114;923164;-71
2022/03/19 03:04:00;;;;;;;9.75;8.66;;;;;;;-4.88;53.83;103460.09;454435;114;923293;-68
2022/03/19 03:05:05;;;;;;;10.46;9.50;;;;;;;-4.88;53.83;103460.09;460205;114;923159;-67
2022/03/19 03:06:09;;;;;;;10.76;8.83;;;;;;;-4.90;53.78;103457.47;453457;115;922922;-69
2022/03/19 03:07:12;;;;;;;13.16;11.85;;;;;;;-4.94;53.64;103455.82;458737;115;922540;-67
2022/03/19 03:08:16;;;;;;;15.67;13.86;;;;;;;-4.97;53.67;103457.71;452520;115;922764;-67
2022/03/19 03:09:24;;;;;;;18.30;14.82;;;;;;;-4.99;53.77;103464.85;460058;115;922558;-68
2022/03/19 03:10:29;;;;;;;15.44;13.81;;;;;;;-4.99;53.83;103462.19;460421;115;922652;-68
2022/03/19 03:11:32;;;;;;;14.86;13.26;;;;;;;-5.00;53.97;103458.66;460443;115;922554;-66
2022/03/19 03:12:36;;;;;;;14.19;12.78;;;;;;;-4.99;54.04;103452.42;460485;115;922550;-68
2022/03/19 03:13:40;;;;;;;13.55;11.85;;;;;;;-4.97;54.13;103455.05;460115;115;930389;-68
2022/03/19 03:14:43;;;;;;;15.18;13.13;;;;;;;-4.96;54.09;103456.80;460588;115;922685;-67
2022/03/19 03:15:47;;;;;;;14.71;11.53;;;;;;;-4.96;54.11;103456.80;457346;115;922744;-69
2022/03/19 03:16:52;;;;;;;13.49;10.55;;;;;;;-4.96;54.14;103460.30;453044;115;922941;-70
2022/03/19 03:17:56;;;;;;;11.71;10.45;;;;;;;-4.95;54.19;103455.86;452359;115;922871;-68
2022/03/19 03:19:04;;;;;;;10.65;9.48;;;;;;;-4.96;54.11;103457.64;453501;115;922630;-68
2022/03/19 03:20:09;;;;;;;10.74;9.76;;;;;;;-4.96;54.13;103454.14;460355;115;930480;-67
2022/03/19 03:21:13;;;;;;;12.59;11.13;;;;;;;-4.97;54.23;103457.71;456042;115;922968;-67
2022/03/19 03:22:16;;;;;;;12.25;10.98;;;;;;;-4.99;54.20;103457.75;452620;115;922830;-67
2022/03/19 03:23:19;;;;;;;14.49;11.21;;;;;;;-4.98;54.21;103461.28;452628;115;923018;-68
2022/03/19 03:24:23;;;;;;;12.38;11.01;;;;;;;-4.99;54.18;103463.06;452987;115;922559;-69
2022/03/19 03:25:26;;;;;;;12.89;11.55;;;;;;;-5.01;54.11;103464.89;460538;115;922591;-67
2022/03/19 03:26:30;;;;;;;13.21;11.80;;;;;;;-5.06;54.09;103464.15;456059;114;922641;-66
2022/03/19 03:27:34;;;;;;;15.34;12.62;;;;;;;-5.08;54.19;103469.54;452643;115;930334;-68
2022/03/19 03:28:37;;;;;;;14.06;12.68;;;;;;;-5.09;54.16;103466.91;452634;115;922592;-67
2022/03/19 03:29:41;;;;;;;17.34;15.55;;;;;;;-5.11;54.24;103466.07;452629;115;930710;-68
2022/03/19 03:30:44;;;;;;;20.48;16.75;;;;;;;-5.11;54.41;103466.07;452564;115;922582;-67
2022/03/19 03:31:48;;;;;;;25.12;17.72;;;;;;;-5.11;54.28;103474.93;452589;115;922635;-66
2022/03/19 03:32:52;;;;;;;22.30;16.96;;;;;;;-5.12;54.36;103474.96;459562;115;922594;-68
2022/03/19 03:33:55;;;;;;;20.19;14.94;;;;;;;-5.12;54.44;103472.30;452589;115;922596;-68
2022/03/19 03:34:58;;;;;;;27.87;16.51;;;;;;;-5.12;54.43;103472.30;452566;115;922903;-69
2022/03/19 03:36:02;;;;;;;19.31;13.79;;;;;;;-5.13;54.41;103473.24;460050;115;930591;-67
2022/03/19 03:37:06;;;;;;;16.51;12.65;;;;;;;-5.14;54.42;103467.05;457716;115;930590;-68
2022/03/19 03:38:09;;;;;;;15.86;12.13;;;;;;;-5.14;54.49;103474.16;460165;115;923188;-69
2022/03/19 03:39:13;;;;;;;13.99;12.33;;;;;;;-5.14;54.51;103474.16;458612;115;930297;-66
2022/03/19 03:40:19;;;;;;;14.93;12.26;;;;;;;-5.13;54.52;103471.42;460082;115;922659;-68
2022/03/19 03:41:22;;;;;;;14.48;12.14;;;;;;;-5.12;54.50;103470.52;458321;114;922947;-68
2022/03/19 03:42:26;;;;;;;15.69;12.01;;;;;;;-5.11;54.52;103474.05;457350;115;930360;-70
2022/03/19 03:43:29;;;;;;;17.30;11.88;;;;;;;-5.12;54.50;103477.63;460445;115;930305;-68
2022/03/19 03:44:32;;;;;;;15.66;13.14;;;;;;;-5.12;54.59;103474.96;460520;115;925256;-68
2022/03/19 03:45:38;;;;;;;14.09;12.35;;;;;;;-5.11;54.57;103476.71;455178;115;930304;-68
2022/03/19 03:46:41;;;;;;;22.42;16.09;;;;;;;-5.12;54.63;103477.63;452903;115;922600;-67
2022/03/19 03:47:45;;;;;;;18.88;16.62;;;;;;;-5.12;54.64;103473.18;455060;115;922705;-65
2022/03/19 03:48:48;;;;;;;30.18;16.51;;;;;;;-5.11;54.66;103476.71;452507;115;926441;-67
2022/03/19 03:49:53;;;;;;;20.71;15.78;;;;;;;-5.13;54.74;103476.75;460374;115;922433;-66
2022/03/19 03:50:58;;;;;;;16.68;14.78;;;;;;;-5.13;54.74;103476.75;452387;115;930571;-68
2022/03/19 03:52:01;;;;;;;20.69;15.18;;;;;;;-5.13;54.66;103474.09;455312;115;922968;-68
2022/03/19 03:53:05;;;;;;;18.88;14.54;;;;;;;-5.15;54.62;103470.62;459625;115;930557;-67
2022/03/19 03:54:09;;;;;;;15.61;13.73;;;;;;;-5.15;54.66;103472.41;460482;115;922508;-68
2022/03/19 03:55:14;;;;;;;16.84;14.68;;;;;;;-5.16;54.69;103476.84;451872;117;930489;-69
2022/03/19 03:56:18;;;;;;;19.76;14.66;;;;;;;-5.16;54.79;103475.97;451979;115;922776;-68
2022/03/19 03:57:21;;;;;;;16.24;13.76;;;;;;;-5.15;54.99;103477.72;454708;115;922518;-68
2022/03/19 03:58:25;;;;;;;19.24;14.11;;;;;;;-5.14;54.95;103479.48;456317;115;924208;-68
2022/03/19 03:59:30;;;;;;;18.71;13.83;;;;;;;-5.13;54.96;103481.23;460487;115;922756;-68
2022/03/19 04:00:35;;;;;;;20.88;15.11;;;;;;;-5.14;54.91;103487.45;460324;115;930621;-69
2022/03/19 04:01:38;;;;;;;20.16;15.32;;;;;;;-5.13;54.99;103491.86;455399;115;922700;-68
2022/03/19 04:02:42;;;;;;;20.41;15.65;;;;;;;-5.15;55.01;103491.90;452950;115;922524;-68
2022/03/19 04:03:46;;;;;;;20.77;15.99;;;;;;;-5.16;54.85;103492.81;460401;115;922763;-68
2022/03/19 04:04:49;;;;;;;19.16;14.88;;;;;;;-5.16;55.00;103499.91;458353;112;930460;-70
2022/03/19 04:05:52;;;;;;;21.17;15.41;;;;;;;-5.16;54.93;103502.57;464511;112;922788;-68
2022/03/19 04:06:56;;;;;;;19.56;14.98;;;;;;;-5.17;54.95;103504.36;461153;112;922626;-68
2022/03/19 04:08:01;;;;;;;16.56;14.27;;;;;;;-5.17;55.00;103491.05;467228;112;930532;-67
2022/03/19 04:09:05;;;;;;;17.36;13.99;;;;;;;-5.17;54.94;103498.16;463722;112;925390;-68
2022/03/19 04:10:09;;;;;;;18.06;14.06;;;;;;;-5.18;55.02;103502.61;461526;112;922587;-68
2022/03/19 04:11:12;;;;;;;22.71;15.41;;;;;;;-5.17;55.00;103501.70;465290;112;922596;-67
2022/03/19 04:12:16;;;;;;;21.42;15.74;;;;;;;-5.16;55.01;103503.45;468626;112;930557;-69
2022/03/19 04:13:19;;;;;;;22.40;16.42;;;;;;;-5.16;55.09;103506.11;461191;112;930692;-68
2022/03/19 04:14:22;;;;;;;17.27;14.78;;;;;;;-5.15;55.11;103507.86;465439;112;922680;-70
2022/03/19 04:15:26;;;;;;;15.97;13.70;;;;;;;-5.13;55.15;103507.83;463613;112;930588;-67
2022/03/19 04:16:31;;;;;;;14.88;13.13;;;;;;;-5.11;55.18;103500.66;461109;112;922663;-68
2022/03/19 04:17:34;;;;;;;17.49;14.31;;;;;;;-5.09;55.23;103499.71;460306;112;922567;-69
2022/03/19 04:18:38;;;;;;;16.97;14.47;;;;;;;-5.06;55.17;103506.71;461414;112;930430;-66
2022/03/19 04:19:41;;;;;;;16.19;13.72;;;;;;;-5.05;55.02;103503.14;455250;114;930456;-67
2022/03/19 04:20:45;;;;;;;15.73;13.95;;;;;;;-5.05;55.02;103503.14;454096;112;930397;-69
2022/03/19 04:21:49;;;;;;;15.08;13.49;;;;;;;-5.03;55.11;103503.98;461010;112;922807;-68
2022/03/19 04:22:53;;;;;;;17.44;13.36;;;;;;;-5.02;55.11;103503.08;464266;112;922521;-67
2022/03/19 04:23:56;;;;;;;19.92;15.43;;;;;;;-4.99;55.12;103508.30;459262;112;922584;-68
2022/03/19 04:25:00;;;;;;;16.57;14.74;;;;;;;-4.96;55.12;103512.67;460076;112;922746;-66
2022/03/19 04:26:03;;;;;;;17.51;14.07;;;;;;;-4.94;55.09;103509.03;465771;112;930403;-67
2022/03/19 04:27:09;;;;;;;18.47;14.26;;;;;;;-4.93;55.01;103517.89;462064;112;930707;-68
2022/03/19 04:28:12;;;;;;;14.81;13.04;;;;;;;-4.92;55.00;103512.53;466218;112;922955;-66
2022/03/19 04:29:16;;;;;;;18.76;12.96;;;;;;;-4.91;54.93;103522.27;456965;112;922516;-68
2022/03/19 04:30:22;;;;;;;15.19;11.46;;;;;;;-4.91;54.90;103521.39;464162;112;922842;-68
2022/03/19 04:31:26;;;;;;;11.73;10.53;;;;;;;-4.91;54.82;103519.61;463339;112;922994;-67
2022/03/19 04:32:29;;;;;;;12.81;10.99;;;;;;;-4.89;54.79;103522.20;464985;112;922552;-68
2022/03/19 04:33:33;;;;;;;12.13;11.01;;;;;;;-4.91;54.63;103526.72;462330;112;930403;-67
2022/03/19 04:34:36;;;;;;;13.47;11.52;;;;;;;-4.92;54.59;103525.84;462457;112;922595;-68
2022/03/19 04:37:01;;;;;;;10.83;9.78;;;;;;;-4.92;54.53;103527.63;460400;112;923071;-68
2022/03/19 04:38:08;;;;;;;11.16;10.06;;;;;;;-4.93;54.53;103533.86;462614;112;922533;-68
2022/03/19 04:39:11;;;;;;;11.12;9.97;;;;;;;-4.94;54.55;103529.45;461995;112;922870;-68
2022/03/19 04:40:15;;;;;;;13.36;9.44;;;;;;;-4.94;54.55;103530.32;465183;112;922572;-68
2022/03/19 04:41:19;;;;;;;10.84;9.53;;;;;;;-4.93;54.66;103532.07;464192;112;922578;-67
2022/03/19 04:42:22;;;;;;;12.91;9.84;;;;;;;-4.91;54.70;103542.68;460403;112;930500;-69
2022/03/19 04:43:26;;;;;;;10.24;9.13;;;;;;;-4.89;54.69;103539.05;469418;112;923103;-69
2022/03/19 04:44:29;;;;;;;10.45;9.15;;;;;;;-4.87;54.70;103534.56;456343;112;922458;-66
2022/03/19 04:45:34;;;;;;;10.31;9.03;;;;;;;-4.84;54.64;103539.78;461782;112;922638;-67
2022/03/19 04:46:37;;;;;;;10.41;9.39;;;;;;;-4.82;54.58;103539.75;460448;112;922685;-67
2022/03/19 04:47:41;;;;;;;10.97;9.88;;;;;;;-4.80;54.57;103535.27;459588;112;922588;-67
2022/03/19 04:48:45;;;;;;;13.92;10.25;;;;;;;-4.79;54.50;103537.86;461700;112;923205;-67
2022/03/19 04:49:49;;;;;;;11.93;9.60;;;;;;;-4.77;54.53;103544.02;464192;112;922765;-68
2022/03/19 04:50:52;;;;;;;13.30;9.76;;;;;;;-4.76;54.50;103540.45;460481;112;922567;-68
2022/03/19 04:51:56;;;;;;;11.92;10.14;;;;;;;-4.74;54.42;103538.59;458789;112;930483;-67
2022/03/19 04:52:59;;;;;;;14.29;11.68;;;;;;;-4.75;54.38;103542.20;467542;112;930855;-68
2022/03/19 04:54:04;;;;;;;11.94;10.76;;;;;;;-4.73;54.40;103544.80;461418;112;930336;-67
2022/03/19 04:55:09;;;;;;;11.72;9.96;;;;;;;-4.74;54.29;103541.26;458546;112;922628;-69